createdAt,value
2022-11-16T00:01:27.165Z,95.03
2022-11-16T00:03:55.948Z,95.04
2022-11-16T00:06:23.587Z,94.94
2022-11-16T00:09:12.627Z,94.98
2022-11-16T00:11:39.512Z,95.24
2022-11-16T00:14:06.587Z,95.01
2022-11-16T00:16:33.383Z,95.23
2022-11-16T00:19:02.770Z,95.20
2022-11-16T00:21:30.005Z,95.32
2022-11-16T00:23:56.727Z,95.30
2022-11-16T00:26:24.013Z,95.54
2022-11-16T00:28:51.739Z,95.75
2022-11-16T00:31:18.696Z,95.86
2022-11-16T00:33:45.119Z,95.77
2022-11-16T00:36:13.048Z,95.49
2022-11-16T00:38:40.066Z,95.56
2022-11-16T00:41:06.786Z,95.33
2022-11-16T00:43:34.328Z,95.24
2022-11-16T00:46:00.887Z,95.26
2022-11-16T00:48:27.442Z,95.29
2022-11-16T00:50:54.194Z,95.14
2022-11-16T00:53:21.006Z,95.04
2022-11-16T00:55:48.046Z,95.25
2022-11-16T00:58:15.331Z,95.06
2022-11-16T01:00:42.308Z,95.14
2022-11-16T01:03:08.654Z,95.34
2022-11-16T01:05:35.022Z,95.35
2022-11-16T01:08:01.443Z,95.53
2022-11-16T01:10:28.426Z,95.33
2022-11-16T01:12:55.670Z,95.45
2022-11-16T01:15:23.654Z,95.45
2022-11-16T01:17:50.611Z,95.25
2022-11-16T01:20:19.682Z,95.13
2022-11-16T01:22:46.714Z,95.24
2022-11-16T01:25:14.412Z,95.16
2022-11-16T01:27:42.342Z,95.38
2022-11-16T01:30:10.707Z,95.57
2022-11-16T01:32:37.244Z,95.54
2022-11-16T01:35:04.618Z,95.46
2022-11-16T01:37:31.269Z,95.49
2022-11-16T01:39:57.675Z,95.25
2022-11-16T01:42:26.525Z,94.98
2022-11-16T01:45:15.681Z,94.91
2022-11-16T01:47:42.038Z,95.09
2022-11-16T01:50:16.535Z,94.87
2022-11-16T01:52:48.324Z,94.79
2022-11-16T01:55:14.791Z,94.92
2022-11-16T01:57:43.136Z,94.66
2022-11-16T02:00:11.085Z,94.62
2022-11-16T02:02:37.438Z,94.94
2022-11-16T02:05:04.713Z,94.94
2022-11-16T02:08:13.242Z,94.87
2022-11-16T02:10:48.852Z,94.94
2022-11-16T02:13:30.310Z,94.77
2022-11-16T02:16:24.419Z,94.88
2022-11-16T02:19:03.575Z,94.95
2022-11-16T02:21:38.010Z,94.99
2022-11-16T02:24:34.755Z,95.05
2022-11-16T02:27:28.416Z,95.09
2022-11-16T02:29:55.735Z,95.25
2022-11-16T02:32:32.098Z,95.20
2022-11-16T02:35:06.671Z,94.90
2022-11-16T02:37:36.508Z,95.12
2022-11-16T02:40:03.807Z,95.79
2022-11-16T02:42:38.150Z,96.23
2022-11-16T02:45:06.802Z,95.77
2022-11-16T02:47:34.522Z,95.80
2022-11-16T02:50:08.812Z,95.75
2022-11-16T02:52:36.000Z,95.51
2022-11-16T02:55:02.427Z,95.55
2022-11-16T02:57:34.018Z,95.57
2022-11-16T03:00:00.610Z,95.90
2022-11-16T03:02:42.203Z,95.66
2022-11-16T03:05:31.783Z,95.51
2022-11-16T03:08:06.815Z,95.53
2022-11-16T03:10:55.302Z,95.68
2022-11-16T03:13:24.130Z,95.70
2022-11-16T03:15:50.943Z,95.75
2022-11-16T03:18:18.015Z,95.73
2022-11-16T03:20:44.424Z,95.78
2022-11-16T03:23:11.820Z,95.69
2022-11-16T03:25:49.098Z,95.59
2022-11-16T03:28:21.843Z,95.41
2022-11-16T03:30:59.823Z,95.25
2022-11-16T03:33:30.946Z,95.09
2022-11-16T03:36:10.118Z,95.22
2022-11-16T03:38:37.836Z,95.19
2022-11-16T03:41:07.519Z,95.28
2022-11-16T03:43:34.580Z,94.91
2022-11-16T03:46:01.048Z,95.32
2022-11-16T03:48:38.533Z,95.19
2022-11-16T03:51:05.882Z,95.37
2022-11-16T03:53:32.250Z,95.50
2022-11-16T03:55:58.598Z,95.16
2022-11-16T03:58:24.979Z,95.48
2022-11-16T04:00:51.394Z,95.37
2022-11-16T04:03:17.779Z,95.22
2022-11-16T04:06:02.939Z,95.24
2022-11-16T04:08:47.976Z,95.48
2022-11-16T04:11:51.125Z,95.26
2022-11-16T04:14:40.087Z,95.05
2022-11-16T04:17:30.147Z,95.13
2022-11-16T04:20:14.998Z,95.14
2022-11-16T04:23:09.569Z,94.97
2022-11-16T04:25:35.912Z,95.41
2022-11-16T04:28:16.100Z,95.38
2022-11-16T04:31:03.880Z,95.07
2022-11-16T04:33:49.311Z,94.88
2022-11-16T04:36:34.444Z,95.18
2022-11-16T04:39:00.880Z,94.91
2022-11-16T04:41:45.970Z,94.81
2022-11-16T04:44:12.326Z,94.54
2022-11-16T04:46:57.418Z,94.61
2022-11-16T04:49:23.789Z,94.41
2022-11-16T04:51:50.164Z,94.40
2022-11-16T04:54:16.525Z,94.15
2022-11-16T04:56:42.923Z,94.32
2022-11-16T04:59:09.297Z,94.36
2022-11-16T05:02:04.902Z,94.44
2022-11-16T05:04:31.282Z,94.53
2022-11-16T05:06:57.698Z,94.54
2022-11-16T05:09:24.104Z,94.52
2022-11-16T05:11:50.667Z,94.21
2022-11-16T05:14:17.054Z,94.31
2022-11-16T05:16:43.621Z,94.29
2022-11-16T05:19:28.606Z,94.28
2022-11-16T05:21:54.958Z,94.40
2022-11-16T05:24:33.392Z,94.11
2022-11-16T05:27:11.849Z,94.02
2022-11-16T05:29:38.429Z,94.52
2022-11-16T05:32:05.490Z,94.28
2022-11-16T05:34:31.877Z,94.20
2022-11-16T05:36:58.536Z,94.58
2022-11-16T05:39:25.440Z,94.21
2022-11-16T05:41:52.309Z,94.34
2022-11-16T05:44:18.991Z,94.28
2022-11-16T05:46:45.553Z,94.24
2022-11-16T05:49:13.097Z,94.26
2022-11-16T05:51:40.652Z,94.16
2022-11-16T05:54:07.133Z,94.39
2022-11-16T05:56:34.903Z,94.61
2022-11-16T05:59:01.583Z,94.55
2022-11-16T06:01:27.973Z,94.74
2022-11-16T06:03:54.477Z,94.75
2022-11-16T06:06:20.987Z,94.60
2022-11-16T06:08:47.406Z,94.51
2022-11-16T06:11:13.972Z,95.01
2022-11-16T06:13:40.452Z,95.04
2022-11-16T06:16:07.213Z,95.19
2022-11-16T06:18:37.053Z,94.96
2022-11-16T06:21:03.447Z,95.09
2022-11-16T06:23:29.889Z,95.28
2022-11-16T06:25:56.506Z,95.08
2022-11-16T06:28:23.418Z,95.23
2022-11-16T06:30:49.974Z,95.26
2022-11-16T06:33:16.715Z,94.91
2022-11-16T06:35:43.211Z,94.61
2022-11-16T06:38:09.574Z,94.84
2022-11-16T06:40:37.749Z,94.79
2022-11-16T06:43:04.297Z,94.62
2022-11-16T06:45:30.655Z,94.65
2022-11-16T06:47:57.007Z,94.43
2022-11-16T06:50:23.356Z,94.48
2022-11-16T06:52:49.904Z,94.51
2022-11-16T06:55:16.697Z,94.42
2022-11-16T06:57:43.599Z,94.54
2022-11-16T07:00:11.029Z,94.27
2022-11-16T07:02:38.599Z,94.10
2022-11-16T07:05:06.167Z,94.18
2022-11-16T07:07:33.004Z,94.19
2022-11-16T07:09:59.475Z,94.12
2022-11-16T07:12:26.561Z,94.13
2022-11-16T07:14:53.172Z,94.30
2022-11-16T07:17:19.528Z,94.18
2022-11-16T07:19:45.991Z,94.37
2022-11-16T07:22:12.348Z,94.78
2022-11-16T07:24:38.733Z,94.77
2022-11-16T07:27:05.310Z,94.64
2022-11-16T07:29:31.691Z,94.57
2022-11-16T07:31:58.053Z,94.79
2022-11-16T07:34:24.460Z,94.67
2022-11-16T07:36:50.811Z,94.52
2022-11-16T07:39:17.222Z,94.13
2022-11-16T07:41:44.260Z,94.20
2022-11-16T07:44:12.243Z,94.56
2022-11-16T07:46:47.846Z,94.53
2022-11-16T07:49:16.156Z,95.01
2022-11-16T07:51:42.899Z,95.23
2022-11-16T07:54:12.375Z,95.06
2022-11-16T07:56:38.742Z,94.79
2022-11-16T07:59:05.994Z,95.10
2022-11-16T08:01:33.302Z,95.07
2022-11-16T08:04:01.655Z,94.80
2022-11-16T08:06:29.880Z,94.71
2022-11-16T08:08:58.883Z,94.95
2022-11-16T08:11:26.014Z,94.89
2022-11-16T08:13:52.438Z,95.14
2022-11-16T08:16:21.115Z,94.72
2022-11-16T08:18:47.832Z,94.43
2022-11-16T08:21:15.524Z,94.59
2022-11-16T08:23:42.159Z,94.72
2022-11-16T08:26:16.775Z,94.41
2022-11-16T08:28:44.666Z,94.55
2022-11-16T08:31:18.859Z,94.48
2022-11-16T08:33:45.540Z,94.62
2022-11-16T08:36:17.083Z,94.53
2022-11-16T08:38:48.167Z,94.32
2022-11-16T08:41:15.574Z,94.27
2022-11-16T08:43:42.488Z,94.21
2022-11-16T08:46:10.368Z,94.34
2022-11-16T08:48:37.672Z,93.95
2022-11-16T08:51:20.752Z,93.91
2022-11-16T08:53:48.896Z,93.87
2022-11-16T08:56:17.073Z,93.48
2022-11-16T08:58:44.261Z,93.32
2022-11-16T09:01:18.973Z,92.98
2022-11-16T09:03:45.553Z,92.78
2022-11-16T09:06:12.613Z,92.36
2022-11-16T09:08:40.736Z,91.48
2022-11-16T09:11:09.101Z,90.99
2022-11-16T09:13:35.478Z,91.03
2022-11-16T09:16:02.115Z,90.79
2022-11-16T09:18:29.392Z,90.46
2022-11-16T09:20:56.020Z,90.85
2022-11-16T09:23:25.595Z,90.92
2022-11-16T09:25:52.749Z,90.56
2022-11-16T09:28:19.562Z,90.44
2022-11-16T09:30:47.009Z,90.58
2022-11-16T09:33:13.457Z,90.24
2022-11-16T09:35:40.116Z,90.12
2022-11-16T09:38:06.671Z,89.70
2022-11-16T09:40:35.745Z,89.81
2022-11-16T09:43:42.566Z,89.25
2022-11-16T09:46:17.787Z,89.64
2022-11-16T09:48:44.450Z,89.94
2022-11-16T09:51:14.495Z,89.53
2022-11-16T09:54:02.715Z,88.62
2022-11-16T09:56:31.644Z,88.82
2022-11-16T09:59:18.087Z,88.30
2022-11-16T10:01:59.839Z,87.24
2022-11-16T10:04:29.126Z,87.40
2022-11-16T10:07:15.175Z,87.13
2022-11-16T10:09:42.424Z,87.21
2022-11-16T10:12:27.112Z,86.83
2022-11-16T10:15:01.273Z,86.80
2022-11-16T10:17:37.222Z,86.43
2022-11-16T10:20:06.478Z,86.08
2022-11-16T10:23:04.668Z,84.73
2022-11-16T10:25:44.855Z,83.82
2022-11-16T10:28:32.467Z,82.40
2022-11-16T10:31:17.260Z,79.92
2022-11-16T10:33:44.931Z,79.37
2022-11-16T10:36:14.271Z,77.30
2022-11-16T10:38:42.054Z,76.27
2022-11-16T10:41:24.507Z,74.97
2022-11-16T10:43:50.866Z,74.99
2022-11-16T10:46:21.619Z,74.93
2022-11-16T10:48:56.102Z,75.94
2022-11-16T10:51:22.689Z,77.59
2022-11-16T10:53:49.501Z,78.97
2022-11-16T10:56:21.222Z,78.12
2022-11-16T10:58:54.924Z,76.35
2022-11-16T11:01:32.254Z,76.39
2022-11-16T11:04:22.679Z,77.11
2022-11-16T11:06:53.112Z,76.84
2022-11-16T11:09:28.860Z,77.35
2022-11-16T11:12:18.744Z,79.32
2022-11-16T11:15:25.534Z,78.99
2022-11-16T11:18:20.323Z,78.71
2022-11-16T11:20:50.214Z,79.33
2022-11-16T11:23:25.489Z,79.18
2022-11-16T11:25:57.087Z,79.21
2022-11-16T11:28:31.656Z,79.67
2022-11-16T11:31:07.379Z,80.64
2022-11-16T11:33:36.455Z,80.26
2022-11-16T11:36:07.774Z,79.41
2022-11-16T11:38:35.166Z,80.59
2022-11-16T11:41:05.011Z,80.08
2022-11-16T11:43:33.555Z,80.17
2022-11-16T11:46:07.214Z,80.43
2022-11-16T11:48:47.693Z,79.87
2022-11-16T11:51:21.179Z,79.96
2022-11-16T11:53:53.426Z,79.72
2022-11-16T11:56:20.063Z,80.36
2022-11-16T11:58:47.259Z,80.38
2022-11-16T12:01:35.589Z,79.85
2022-11-16T12:04:08.012Z,80.74
2022-11-16T12:06:43.768Z,79.93
2022-11-16T12:09:47.592Z,79.64
2022-11-16T12:12:36.026Z,79.23
2022-11-16T12:15:08.689Z,80.53
2022-11-16T12:17:42.220Z,79.90
2022-11-16T12:20:27.282Z,79.57
2022-11-16T12:23:04.343Z,80.91
2022-11-16T12:25:44.498Z,81.43
2022-11-16T12:28:23.307Z,80.88
2022-11-16T12:31:01.805Z,80.21
2022-11-16T12:33:45.475Z,80.33
2022-11-16T12:36:23.703Z,78.88
2022-11-16T12:39:24.802Z,78.93
2022-11-16T12:42:06.999Z,79.87
2022-11-16T12:44:42.451Z,79.88
2022-11-16T12:47:49.448Z,79.03
2022-11-16T12:50:29.656Z,79.27
2022-11-16T12:53:06.546Z,78.38
2022-11-16T12:55:59.071Z,77.99
2022-11-16T12:58:39.738Z,77.73
2022-11-16T13:01:30.809Z,77.37
2022-11-16T13:04:01.642Z,77.46
2022-11-16T13:06:32.556Z,76.45
2022-11-16T13:09:25.602Z,76.48
2022-11-16T13:12:01.645Z,77.08
2022-11-16T13:14:30.254Z,77.25
2022-11-16T13:16:57.451Z,77.81
2022-11-16T13:19:24.238Z,77.61
2022-11-16T13:22:02.667Z,76.72
2022-11-16T13:24:44.374Z,76.33
2022-11-16T13:27:41.551Z,75.89
2022-11-16T13:30:19.510Z,75.78
2022-11-16T13:33:18.864Z,75.14
2022-11-16T13:35:45.323Z,75.78
2022-11-16T13:38:13.270Z,76.01
2022-11-16T13:40:40.140Z,75.72
2022-11-16T13:43:09.512Z,75.81
2022-11-16T13:45:42.692Z,74.80
2022-11-16T13:48:25.178Z,75.49
2022-11-16T13:50:56.865Z,74.85
2022-11-16T13:54:32.636Z,75.13
2022-11-16T13:56:16.290Z,75.63
2022-11-16T13:58:49.097Z,74.80
2022-11-16T14:01:16.253Z,74.70
2022-11-16T14:03:46.841Z,74.23
2022-11-16T14:06:13.099Z,74.28
2022-11-16T14:08:39.375Z,75.13
2022-11-16T14:11:28.390Z,73.89
2022-11-16T14:13:54.911Z,74.54
2022-11-16T14:16:21.534Z,75.13
2022-11-16T14:18:59.109Z,73.39
2022-11-16T14:21:33.114Z,72.32
2022-11-16T14:24:21.271Z,72.05
2022-11-16T14:27:09.468Z,72.58
2022-11-16T14:30:11.253Z,72.88
2022-11-16T14:32:44.674Z,73.11
2022-11-16T14:35:26.113Z,73.82
2022-11-16T14:38:01.033Z,73.85
2022-11-16T14:40:27.615Z,74.48
2022-11-16T14:43:17.208Z,73.98
2022-11-16T14:45:47.511Z,74.20
2022-11-16T14:48:21.813Z,74.52
2022-11-16T14:51:11.552Z,74.73
2022-11-16T14:53:42.039Z,75.70
2022-11-16T14:56:14.034Z,75.41
2022-11-16T14:58:44.056Z,75.79
2022-11-16T15:01:14.008Z,75.77
2022-11-16T15:03:54.184Z,76.10
2022-11-16T15:06:21.366Z,76.94
2022-11-16T15:09:02.989Z,77.09
2022-11-16T15:11:59.059Z,77.21
2022-11-16T15:14:28.275Z,77.90
2022-11-16T15:16:56.610Z,77.77
2022-11-16T15:19:23.953Z,78.33
2022-11-16T15:21:55.138Z,78.75
2022-11-16T15:24:31.772Z,78.89
2022-11-16T15:27:25.821Z,79.38
2022-11-16T15:29:52.267Z,79.82
2022-11-16T15:32:18.768Z,79.86
2022-11-16T15:34:51.767Z,79.71
2022-11-16T15:37:29.791Z,79.79
2022-11-16T15:39:58.100Z,80.09
2022-11-16T15:42:25.790Z,80.85
2022-11-16T15:44:52.378Z,80.77
2022-11-16T15:47:19.404Z,80.93
2022-11-16T15:49:49.505Z,81.36
2022-11-16T15:52:42.575Z,81.29
2022-11-16T15:55:23.828Z,81.48
2022-11-16T15:58:18.475Z,81.86
2022-11-16T16:00:47.548Z,81.78
2022-11-16T16:03:27.583Z,81.71
2022-11-16T16:05:54.903Z,81.82
2022-11-16T16:08:28.594Z,82.15
2022-11-16T16:10:59.357Z,82.38
2022-11-16T16:13:29.366Z,82.75
2022-11-16T16:16:11.777Z,83.45
2022-11-16T16:18:44.692Z,82.93
2022-11-16T16:21:12.604Z,82.89
2022-11-16T16:23:53.757Z,83.44
2022-11-16T16:26:20.640Z,83.26
2022-11-16T16:28:47.537Z,83.74
2022-11-16T16:31:14.602Z,83.88
2022-11-16T16:33:41.156Z,83.90
2022-11-16T16:36:08.002Z,84.01
2022-11-16T16:38:34.368Z,84.22
2022-11-16T16:41:02.600Z,84.28
2022-11-16T16:43:29.710Z,84.33
2022-11-16T16:45:56.528Z,84.21
2022-11-16T16:48:22.919Z,84.07
2022-11-16T16:50:49.308Z,83.97
2022-11-16T16:53:15.700Z,84.35
2022-11-16T16:55:43.156Z,84.05
2022-11-16T16:58:13.441Z,84.49
2022-11-16T17:00:40.818Z,84.43
2022-11-16T17:03:07.217Z,84.92
2022-11-16T17:05:33.973Z,84.98
2022-11-16T17:08:00.833Z,84.82
2022-11-16T17:10:27.209Z,85.32
2022-11-16T17:12:54.433Z,85.08
2022-11-16T17:15:21.870Z,85.11
2022-11-16T17:17:48.256Z,85.36
2022-11-16T17:20:16.080Z,85.34
2022-11-16T17:22:43.435Z,85.30
2022-11-16T17:25:10.523Z,85.56
2022-11-16T17:27:36.880Z,85.66
2022-11-16T17:30:04.219Z,85.31
2022-11-16T17:32:30.617Z,85.65
2022-11-16T17:34:56.975Z,85.60
2022-11-16T17:37:23.358Z,85.25
2022-11-16T17:39:49.736Z,85.26
2022-11-16T17:42:16.116Z,85.58
2022-11-16T17:44:42.498Z,85.42
2022-11-16T17:47:09.299Z,85.28
2022-11-16T17:49:35.671Z,85.20
2022-11-16T17:52:02.204Z,85.28
2022-11-16T17:54:28.577Z,85.64
2022-11-16T17:56:55.035Z,85.58
2022-11-16T17:59:26.432Z,85.41
2022-11-16T18:01:55.475Z,85.77
2022-11-16T18:04:21.845Z,85.46
2022-11-16T18:06:48.348Z,85.60
2022-11-16T18:09:14.738Z,85.50
2022-11-16T18:11:41.543Z,85.88
2022-11-16T18:14:08.019Z,85.74
2022-11-16T18:16:34.570Z,85.59
2022-11-16T18:19:03.416Z,85.82
2022-11-16T18:21:30.066Z,85.67
2022-11-16T18:23:58.796Z,85.02
2022-11-16T18:26:25.481Z,85.17
2022-11-16T18:28:52.532Z,84.75
2022-11-16T18:31:21.171Z,84.64
2022-11-16T18:33:49.156Z,84.93
2022-11-16T18:36:15.877Z,85.05
2022-11-16T18:38:42.285Z,84.53
2022-11-16T18:41:11.551Z,84.52
2022-11-16T18:43:38.799Z,84.90
2022-11-16T18:46:05.495Z,84.53
2022-11-16T18:48:32.208Z,84.64
2022-11-16T18:51:03.343Z,84.53
2022-11-16T18:53:30.849Z,84.62
2022-11-16T18:55:58.274Z,84.70
2022-11-16T18:58:49.248Z,84.38
2022-11-16T19:01:14.388Z,84.92
2022-11-16T19:03:41.067Z,84.52
2022-11-16T19:06:08.721Z,84.93
2022-11-16T19:08:36.231Z,84.54
2022-11-16T19:11:14.057Z,84.42
2022-11-16T19:13:41.609Z,84.85
2022-11-16T19:16:09.573Z,84.79
2022-11-16T19:18:36.501Z,84.79
2022-11-16T19:21:07.568Z,85.08
2022-11-16T19:23:38.741Z,85.08
2022-11-16T19:26:05.740Z,84.96
2022-11-16T19:28:39.740Z,85.08
2022-11-16T19:31:18.239Z,84.92
2022-11-16T19:33:45.373Z,85.18
2022-11-16T19:36:13.404Z,85.24
2022-11-16T19:38:39.811Z,85.09
2022-11-16T19:41:07.083Z,85.24
2022-11-16T19:43:34.427Z,85.24
2022-11-16T19:46:12.180Z,85.39
2022-11-16T19:48:38.630Z,85.69
2022-11-16T19:51:05.850Z,85.77
2022-11-16T19:53:32.766Z,85.77
2022-11-16T19:55:59.485Z,85.67
2022-11-16T19:58:25.907Z,85.79
2022-11-16T20:00:52.324Z,85.66
2022-11-16T20:03:18.703Z,85.54
2022-11-16T20:05:45.058Z,85.66
2022-11-16T20:08:11.455Z,85.48
2022-11-16T20:10:37.980Z,85.57
2022-11-16T20:13:04.387Z,85.43
2022-11-16T20:15:30.795Z,85.34
2022-11-16T20:17:57.160Z,85.45
2022-11-16T20:20:23.513Z,85.21
2022-11-16T20:22:50.721Z,85.57
2022-11-16T20:25:17.766Z,85.46
2022-11-16T20:27:44.157Z,85.15
2022-11-16T20:30:11.091Z,85.21
2022-11-16T20:32:37.451Z,85.28
2022-11-16T20:35:03.935Z,85.12
2022-11-16T20:37:30.288Z,85.21
2022-11-16T20:39:57.142Z,84.95
2022-11-16T20:42:23.931Z,84.87
2022-11-16T20:44:50.306Z,84.87
2022-11-16T20:47:16.684Z,85.09
2022-11-16T20:49:43.071Z,84.89
2022-11-16T20:52:09.461Z,84.87
2022-11-16T20:54:35.891Z,84.92
2022-11-16T20:57:02.337Z,84.98
2022-11-16T20:59:28.704Z,84.85
2022-11-16T21:01:55.182Z,84.68
2022-11-16T21:04:21.908Z,84.67
2022-11-16T21:06:48.314Z,84.74
2022-11-16T21:09:22.481Z,84.68
2022-11-16T21:12:07.502Z,84.66
2022-11-16T21:14:33.932Z,84.71
2022-11-16T21:17:00.290Z,84.81
2022-11-16T21:19:26.663Z,84.65
2022-11-16T21:21:53.017Z,84.73
2022-11-16T21:24:19.372Z,84.86
2022-11-16T21:26:45.729Z,85.00
2022-11-16T21:29:12.143Z,84.38
2022-11-16T21:31:38.514Z,84.71
2022-11-16T21:34:05.766Z,84.85
2022-11-16T21:36:32.306Z,84.51
2022-11-16T21:38:59.047Z,84.61
2022-11-16T21:41:25.863Z,84.64
2022-11-16T21:43:52.297Z,84.74
2022-11-16T21:46:24.681Z,84.56
2022-11-16T21:48:52.656Z,84.62
2022-11-16T21:51:20.454Z,84.90
2022-11-16T21:53:47.333Z,84.28
2022-11-16T21:56:15.345Z,84.31
2022-11-16T21:58:42.122Z,84.25
2022-11-16T22:01:09.328Z,84.49
2022-11-16T22:03:36.023Z,84.51
2022-11-16T22:06:22.795Z,84.73
2022-11-16T22:08:49.204Z,84.81
2022-11-16T22:11:16.060Z,84.95
2022-11-16T22:13:42.826Z,84.76
2022-11-16T22:16:12.532Z,84.18
2022-11-16T22:18:39.441Z,84.98
2022-11-16T22:21:05.921Z,84.77
2022-11-16T22:23:32.831Z,84.59
2022-11-16T22:26:07.246Z,84.51
2022-11-16T22:28:34.520Z,84.85
2022-11-16T22:31:06.031Z,84.73
2022-11-16T22:33:33.191Z,84.78
2022-11-16T22:35:59.860Z,84.72
2022-11-16T22:38:26.311Z,85.51
2022-11-16T22:40:54.782Z,85.32
2022-11-16T22:43:22.669Z,85.67
2022-11-16T22:45:49.171Z,85.44
2022-11-16T22:48:15.793Z,85.46
2022-11-16T22:50:42.526Z,85.34
2022-11-16T22:53:09.865Z,85.62
2022-11-16T22:55:37.751Z,85.57
2022-11-16T22:58:04.631Z,86.08
2022-11-16T23:00:31.199Z,85.98
2022-11-16T23:02:57.744Z,86.59
2022-11-16T23:05:24.343Z,86.91
2022-11-16T23:07:50.703Z,87.51
2022-11-16T23:10:17.907Z,87.69
2022-11-16T23:13:02.869Z,88.19
2022-11-16T23:15:47.900Z,88.71
2022-11-16T23:18:14.459Z,89.10
2022-11-16T23:20:59.642Z,89.42
2022-11-16T23:23:44.736Z,89.36
2022-11-16T23:26:47.772Z,89.84
2022-11-16T23:29:14.144Z,90.36
2022-11-16T23:31:40.487Z,90.77
2022-11-16T23:34:06.843Z,91.06
2022-11-16T23:36:33.198Z,91.46
2022-11-16T23:38:59.566Z,90.94
2022-11-16T23:41:44.671Z,91.73
2022-11-16T23:44:11.096Z,92.11
2022-11-16T23:46:37.451Z,91.88
2022-11-16T23:49:03.812Z,92.74
2022-11-16T23:51:30.185Z,92.49
2022-11-16T23:53:56.606Z,92.90
2022-11-16T23:56:23.262Z,93.46
2022-11-16T23:58:49.696Z,93.80
